sensor_id;sensor_type;location;lat;lon;timestamp;P1;durP1;ratioP1;P2;durP2;ratioP2
46931;SDS011;32670;51.464;11.964;2023-07-16T00:00:51;4.57;;;2.60;;
46931;SDS011;32670;51.464;11.964;2023-07-16T00:03:17;2.70;;;2.40;;
46931;SDS011;32670;51.464;11.964;2023-07-16T00:05:43;3.77;;;2.50;;
46931;SDS011;32670;51.464;11.964;2023-07-16T00:08:08;2.70;;;2.40;;
46931;SDS011;32670;51.464;11.964;2023-07-16T00:10:37;5.40;;;2.50;;
46931;SDS011;32670;51.464;11.964;2023-07-16T00:13:03;2.50;;;2.30;;
46931;SDS011;32670;51.464;11.964;2023-07-16T00:15:29;2.47;;;2.20;;
46931;SDS011;32670;51.464;11.964;2023-07-16T00:17:54;2.30;;;2.10;;
46931;SDS011;32670;51.464;11.964;2023-07-16T00:20:20;2.33;;;2.13;;
46931;SDS011;32670;51.464;11.964;2023-07-16T00:22:46;2.27;;;2.07;;
46931;SDS011;32670;51.464;11.964;2023-07-16T00:25:11;2.53;;;1.90;;
46931;SDS011;32670;51.464;11.964;2023-07-16T00:27:37;2.40;;;2.20;;
46931;SDS011;32670;51.464;11.964;2023-07-16T00:30:03;3.37;;;2.03;;
46931;SDS011;32670;51.464;11.964;2023-07-16T00:32:29;1.80;;;1.70;;
46931;SDS011;32670;51.464;11.964;2023-07-16T00:34:54;2.33;;;1.73;;
46931;SDS011;32670;51.464;11.964;2023-07-16T00:37:20;2.77;;;1.70;;
46931;SDS011;32670;51.464;11.964;2023-07-16T00:39:45;3.00;;;1.80;;
46931;SDS011;32670;51.464;11.964;2023-07-16T00:42:11;1.87;;;1.60;;
46931;SDS011;32670;51.464;11.964;2023-07-16T00:44:36;1.70;;;1.60;;
46931;SDS011;32670;51.464;11.964;2023-07-16T00:47:02;4.30;;;1.67;;
46931;SDS011;32670;51.464;11.964;2023-07-16T00:49:27;1.60;;;1.40;;
46931;SDS011;32670;51.464;11.964;2023-07-16T00:51:54;3.03;;;1.70;;
46931;SDS011;32670;51.464;11.964;2023-07-16T00:54:20;1.77;;;1.63;;
46931;SDS011;32670;51.464;11.964;2023-07-16T00:56:46;3.17;;;1.80;;
46931;SDS011;32670;51.464;11.964;2023-07-16T00:59:11;1.53;;;1.43;;
46931;SDS011;32670;51.464;11.964;2023-07-16T01:01:37;2.03;;;1.50;;
46931;SDS011;32670;51.464;11.964;2023-07-16T01:04:04;3.40;;;1.70;;
46931;SDS011;32670;51.464;11.964;2023-07-16T01:09:02;1.87;;;1.43;;
46931;SDS011;32670;51.464;11.964;2023-07-16T01:11:31;1.50;;;1.40;;
46931;SDS011;32670;51.464;11.964;2023-07-16T01:14:00;2.87;;;1.30;;
46931;SDS011;32670;51.464;11.964;2023-07-16T01:16:27;2.17;;;1.50;;
46931;SDS011;32670;51.464;11.964;2023-07-16T01:18:53;2.00;;;1.30;;
46931;SDS011;32670;51.464;11.964;2023-07-16T01:21:20;2.40;;;1.30;;
46931;SDS011;32670;51.464;11.964;2023-07-16T01:31:59;3.67;;;1.33;;
46931;SDS011;32670;51.464;11.964;2023-07-16T01:34:28;2.50;;;1.50;;
46931;SDS011;32670;51.464;11.964;2023-07-16T01:36:56;3.10;;;1.47;;
46931;SDS011;32670;51.464;11.964;2023-07-16T01:39:21;1.60;;;1.30;;
46931;SDS011;32670;51.464;11.964;2023-07-16T01:41:47;2.00;;;1.20;;
46931;SDS011;32670;51.464;11.964;2023-07-16T01:44:13;1.83;;;1.40;;
46931;SDS011;32670;51.464;11.964;2023-07-16T01:46:38;2.97;;;1.50;;
46931;SDS011;32670;51.464;11.964;2023-07-16T01:49:03;2.47;;;1.30;;
46931;SDS011;32670;51.464;11.964;2023-07-16T01:51:29;1.80;;;1.30;;
46931;SDS011;32670;51.464;11.964;2023-07-16T01:53:54;1.70;;;1.50;;
46931;SDS011;32670;51.464;11.964;2023-07-16T01:56:20;1.53;;;1.37;;
46931;SDS011;32670;51.464;11.964;2023-07-16T01:58:45;1.37;;;1.27;;
46931;SDS011;32670;51.464;11.964;2023-07-16T02:01:11;1.50;;;1.40;;
46931;SDS011;32670;51.464;11.964;2023-07-16T02:03:36;2.93;;;1.20;;
46931;SDS011;32670;51.464;11.964;2023-07-16T02:06:02;2.50;;;1.30;;
46931;SDS011;32670;51.464;11.964;2023-07-16T02:08:27;2.50;;;1.30;;
46931;SDS011;32670;51.464;11.964;2023-07-16T02:10:53;1.40;;;1.30;;
46931;SDS011;32670;51.464;11.964;2023-07-16T02:13:18;1.60;;;1.30;;
46931;SDS011;32670;51.464;11.964;2023-07-16T02:15:44;1.37;;;1.23;;
46931;SDS011;32670;51.464;11.964;2023-07-16T02:18:09;2.43;;;1.30;;
46931;SDS011;32670;51.464;11.964;2023-07-16T02:20:35;1.40;;;1.30;;
46931;SDS011;32670;51.464;11.964;2023-07-16T02:23:00;2.37;;;1.37;;
46931;SDS011;32670;51.464;11.964;2023-07-16T02:25:26;1.60;;;1.40;;
46931;SDS011;32670;51.464;11.964;2023-07-16T02:27:51;1.23;;;1.13;;
46931;SDS011;32670;51.464;11.964;2023-07-16T02:30:17;3.20;;;1.40;;
46931;SDS011;32670;51.464;11.964;2023-07-16T02:32:43;1.97;;;1.37;;
46931;SDS011;32670;51.464;11.964;2023-07-16T02:35:08;2.93;;;1.47;;
46931;SDS011;32670;51.464;11.964;2023-07-16T02:37:34;2.43;;;1.53;;
46931;SDS011;32670;51.464;11.964;2023-07-16T02:40:00;2.27;;;1.70;;
46931;SDS011;32670;51.464;11.964;2023-07-16T02:42:25;2.00;;;1.50;;
46931;SDS011;32670;51.464;11.964;2023-07-16T02:44:51;2.70;;;1.37;;
46931;SDS011;32670;51.464;11.964;2023-07-16T02:47:17;2.20;;;1.37;;
46931;SDS011;32670;51.464;11.964;2023-07-16T02:49:42;3.17;;;1.60;;
46931;SDS011;32670;51.464;11.964;2023-07-16T02:52:08;1.53;;;1.40;;
46931;SDS011;32670;51.464;11.964;2023-07-16T02:54:35;1.90;;;1.43;;
46931;SDS011;32670;51.464;11.964;2023-07-16T02:57:00;3.10;;;1.73;;
46931;SDS011;32670;51.464;11.964;2023-07-16T02:59:26;3.13;;;1.70;;
46931;SDS011;32670;51.464;11.964;2023-07-16T03:01:51;3.63;;;1.70;;
46931;SDS011;32670;51.464;11.964;2023-07-16T03:04:17;2.60;;;1.47;;
46931;SDS011;32670;51.464;11.964;2023-07-16T03:06:42;2.40;;;1.50;;
46931;SDS011;32670;51.464;11.964;2023-07-16T03:09:08;2.67;;;1.60;;
46931;SDS011;32670;51.464;11.964;2023-07-16T03:11:33;2.97;;;1.50;;
46931;SDS011;32670;51.464;11.964;2023-07-16T03:13:59;3.37;;;1.70;;
46931;SDS011;32670;51.464;11.964;2023-07-16T03:16:24;2.27;;;1.73;;
46931;SDS011;32670;51.464;11.964;2023-07-16T03:18:50;2.57;;;1.63;;
46931;SDS011;32670;51.464;11.964;2023-07-16T03:21:15;1.70;;;1.60;;
46931;SDS011;32670;51.464;11.964;2023-07-16T03:23:41;1.67;;;1.57;;
46931;SDS011;32670;51.464;11.964;2023-07-16T03:26:07;2.17;;;1.80;;
46931;SDS011;32670;51.464;11.964;2023-07-16T03:28:33;1.53;;;1.43;;
46931;SDS011;32670;51.464;11.964;2023-07-16T03:30:58;1.70;;;1.43;;
46931;SDS011;32670;51.464;11.964;2023-07-16T03:33:24;1.70;;;1.60;;
46931;SDS011;32670;51.464;11.964;2023-07-16T03:35:49;1.73;;;1.33;;
46931;SDS011;32670;51.464;11.964;2023-07-16T03:38:15;1.53;;;1.43;;
46931;SDS011;32670;51.464;11.964;2023-07-16T03:40:45;2.00;;;1.60;;
46931;SDS011;32670;51.464;11.964;2023-07-16T03:43:13;2.00;;;1.80;;
46931;SDS011;32670;51.464;11.964;2023-07-16T03:45:39;2.73;;;1.50;;
46931;SDS011;32670;51.464;11.964;2023-07-16T03:48:04;3.73;;;1.77;;
46931;SDS011;32670;51.464;11.964;2023-07-16T03:50:30;2.80;;;1.60;;
46931;SDS011;32670;51.464;11.964;2023-07-16T03:52:56;2.27;;;1.63;;
46931;SDS011;32670;51.464;11.964;2023-07-16T03:55:21;2.73;;;1.73;;
46931;SDS011;32670;51.464;11.964;2023-07-16T03:57:47;2.57;;;1.83;;
46931;SDS011;32670;51.464;11.964;2023-07-16T04:00:12;2.00;;;1.83;;
46931;SDS011;32670;51.464;11.964;2023-07-16T04:02:38;2.33;;;1.60;;
46931;SDS011;32670;51.464;11.964;2023-07-16T04:05:03;2.17;;;1.77;;
46931;SDS011;32670;51.464;11.964;2023-07-16T04:07:29;3.47;;;1.70;;
46931;SDS011;32670;51.464;11.964;2023-07-16T04:09:54;2.83;;;1.90;;
46931;SDS011;32670;51.464;11.964;2023-07-16T04:12:20;2.00;;;1.50;;
46931;SDS011;32670;51.464;11.964;2023-07-16T04:14:46;1.63;;;1.50;;
46931;SDS011;32670;51.464;11.964;2023-07-16T04:17:12;3.10;;;1.70;;
46931;SDS011;32670;51.464;11.964;2023-07-16T04:19:37;1.80;;;1.70;;
46931;SDS011;32670;51.464;11.964;2023-07-16T04:22:03;2.47;;;1.73;;
46931;SDS011;32670;51.464;11.964;2023-07-16T04:24:29;2.80;;;1.80;;
46931;SDS011;32670;51.464;11.964;2023-07-16T04:26:54;2.23;;;1.77;;
46931;SDS011;32670;51.464;11.964;2023-07-16T04:29:20;3.93;;;1.80;;
46931;SDS011;32670;51.464;11.964;2023-07-16T04:31:46;2.03;;;1.77;;
46931;SDS011;32670;51.464;11.964;2023-07-16T04:34:11;2.00;;;1.60;;
46931;SDS011;32670;51.464;11.964;2023-07-16T04:36:37;2.77;;;1.70;;
46931;SDS011;32670;51.464;11.964;2023-07-16T04:39:03;2.60;;;1.70;;
46931;SDS011;32670;51.464;11.964;2023-07-16T04:41:29;2.33;;;1.50;;
46931;SDS011;32670;51.464;11.964;2023-07-16T04:43:55;4.23;;;1.70;;
46931;SDS011;32670;51.464;11.964;2023-07-16T04:46:20;3.07;;;1.80;;
46931;SDS011;32670;51.464;11.964;2023-07-16T04:48:46;2.17;;;1.70;;
46931;SDS011;32670;51.464;11.964;2023-07-16T04:51:11;1.77;;;1.60;;
46931;SDS011;32670;51.464;11.964;2023-07-16T04:53:36;2.40;;;1.70;;
46931;SDS011;32670;51.464;11.964;2023-07-16T04:56:02;3.00;;;1.80;;
46931;SDS011;32670;51.464;11.964;2023-07-16T04:58:28;2.17;;;1.70;;
46931;SDS011;32670;51.464;11.964;2023-07-16T05:00:53;3.30;;;1.90;;
46931;SDS011;32670;51.464;11.964;2023-07-16T05:03:19;2.47;;;1.50;;
46931;SDS011;32670;51.464;11.964;2023-07-16T05:05:44;2.07;;;1.53;;
46931;SDS011;32670;51.464;11.964;2023-07-16T05:08:10;3.33;;;1.77;;
46931;SDS011;32670;51.464;11.964;2023-07-16T05:10:35;1.70;;;1.40;;
46931;SDS011;32670;51.464;11.964;2023-07-16T05:13:01;3.40;;;1.63;;
46931;SDS011;32670;51.464;11.964;2023-07-16T05:15:28;1.67;;;1.57;;
46931;SDS011;32670;51.464;11.964;2023-07-16T05:17:54;4.10;;;2.10;;
46931;SDS011;32670;51.464;11.964;2023-07-16T05:20:19;3.63;;;1.60;;
46931;SDS011;32670;51.464;11.964;2023-07-16T05:22:45;4.13;;;1.60;;
46931;SDS011;32670;51.464;11.964;2023-07-16T05:25:10;2.20;;;1.80;;
46931;SDS011;32670;51.464;11.964;2023-07-16T05:27:36;2.03;;;1.40;;
46931;SDS011;32670;51.464;11.964;2023-07-16T05:30:01;2.20;;;1.70;;
46931;SDS011;32670;51.464;11.964;2023-07-16T05:32:28;2.90;;;1.40;;
46931;SDS011;32670;51.464;11.964;2023-07-16T05:34:53;3.00;;;1.90;;
46931;SDS011;32670;51.464;11.964;2023-07-16T05:37:19;2.50;;;1.67;;
46931;SDS011;32670;51.464;11.964;2023-07-16T05:39:44;1.90;;;1.53;;
46931;SDS011;32670;51.464;11.964;2023-07-16T05:42:09;1.50;;;1.40;;
46931;SDS011;32670;51.464;11.964;2023-07-16T05:44:35;2.47;;;1.40;;
46931;SDS011;32670;51.464;11.964;2023-07-16T05:47:01;1.60;;;1.50;;
46931;SDS011;32670;51.464;11.964;2023-07-16T05:49:26;2.60;;;1.80;;
46931;SDS011;32670;51.464;11.964;2023-07-16T05:51:52;1.53;;;1.43;;
46931;SDS011;32670;51.464;11.964;2023-07-16T05:54:19;1.87;;;1.70;;
46931;SDS011;32670;51.464;11.964;2023-07-16T05:56:44;1.87;;;1.40;;
46931;SDS011;32670;51.464;11.964;2023-07-16T05:59:10;2.97;;;1.60;;
46931;SDS011;32670;51.464;11.964;2023-07-16T06:01:35;2.27;;;1.67;;
46931;SDS011;32670;51.464;11.964;2023-07-16T06:04:01;3.20;;;1.60;;
46931;SDS011;32670;51.464;11.964;2023-07-16T06:06:27;1.73;;;1.53;;
46931;SDS011;32670;51.464;11.964;2023-07-16T06:08:53;1.57;;;1.43;;
46931;SDS011;32670;51.464;11.964;2023-07-16T06:11:19;3.07;;;1.57;;
46931;SDS011;32670;51.464;11.964;2023-07-16T06:13:44;3.33;;;1.60;;
46931;SDS011;32670;51.464;11.964;2023-07-16T06:16:10;2.03;;;1.50;;
46931;SDS011;32670;51.464;11.964;2023-07-16T06:18:35;2.30;;;1.40;;
46931;SDS011;32670;51.464;11.964;2023-07-16T06:21:01;1.53;;;1.43;;
46931;SDS011;32670;51.464;11.964;2023-07-16T06:23:26;1.77;;;1.50;;
46931;SDS011;32670;51.464;11.964;2023-07-16T06:25:55;2.40;;;1.50;;
46931;SDS011;32670;51.464;11.964;2023-07-16T06:28:21;6.80;;;1.93;;
46931;SDS011;32670;51.464;11.964;2023-07-16T06:30:49;2.13;;;1.50;;
46931;SDS011;32670;51.464;11.964;2023-07-16T06:33:16;1.53;;;0.90;;
46931;SDS011;32670;51.464;11.964;2023-07-16T06:35:43;2.50;;;1.10;;
46931;SDS011;32670;51.464;11.964;2023-07-16T06:38:12;1.93;;;0.97;;
46931;SDS011;32670;51.464;11.964;2023-07-16T06:40:38;2.10;;;1.40;;
46931;SDS011;32670;51.464;11.964;2023-07-16T06:43:04;3.00;;;1.40;;
46931;SDS011;32670;51.464;11.964;2023-07-16T06:45:30;1.60;;;1.20;;
46931;SDS011;32670;51.464;11.964;2023-07-16T06:47:55;5.73;;;1.70;;
46931;SDS011;32670;51.464;11.964;2023-07-16T06:50:21;2.20;;;1.37;;
46931;SDS011;32670;51.464;11.964;2023-07-16T06:52:46;2.83;;;1.40;;
46931;SDS011;32670;51.464;11.964;2023-07-16T06:55:12;1.30;;;0.90;;
46931;SDS011;32670;51.464;11.964;2023-07-16T06:57:38;2.90;;;1.23;;
46931;SDS011;32670;51.464;11.964;2023-07-16T07:00:03;2.23;;;1.40;;
46931;SDS011;32670;51.464;11.964;2023-07-16T07:02:30;2.33;;;1.47;;
46931;SDS011;32670;51.464;11.964;2023-07-16T07:04:55;3.60;;;1.67;;
46931;SDS011;32670;51.464;11.964;2023-07-16T07:07:21;2.47;;;1.03;;
46931;SDS011;32670;51.464;11.964;2023-07-16T07:09:49;3.17;;;1.30;;
46931;SDS011;32670;51.464;11.964;2023-07-16T07:12:15;2.03;;;1.50;;
46931;SDS011;32670;51.464;11.964;2023-07-16T07:14:40;2.50;;;1.20;;
46931;SDS011;32670;51.464;11.964;2023-07-16T07:17:06;5.10;;;1.80;;
46931;SDS011;32670;51.464;11.964;2023-07-16T07:19:31;3.73;;;1.40;;
46931;SDS011;32670;51.464;11.964;2023-07-16T07:21:57;2.63;;;1.43;;
46931;SDS011;32670;51.464;11.964;2023-07-16T07:24:24;4.53;;;1.57;;
46931;SDS011;32670;51.464;11.964;2023-07-16T07:26:51;2.57;;;1.50;;
46931;SDS011;32670;51.464;11.964;2023-07-16T07:29:17;3.63;;;1.90;;
46931;SDS011;32670;51.464;11.964;2023-07-16T07:31:42;2.93;;;1.60;;
46931;SDS011;32670;51.464;11.964;2023-07-16T07:34:08;3.57;;;1.90;;
46931;SDS011;32670;51.464;11.964;2023-07-16T07:36:33;3.83;;;2.37;;
46931;SDS011;32670;51.464;11.964;2023-07-16T07:38:59;3.10;;;1.93;;
46931;SDS011;32670;51.464;11.964;2023-07-16T07:41:24;5.30;;;2.03;;
46931;SDS011;32670;51.464;11.964;2023-07-16T07:43:50;5.67;;;2.30;;
46931;SDS011;32670;51.464;11.964;2023-07-16T07:46:15;5.00;;;1.80;;
46931;SDS011;32670;51.464;11.964;2023-07-16T07:48:41;9.77;;;2.03;;
46931;SDS011;32670;51.464;11.964;2023-07-16T07:51:06;4.20;;;1.70;;
46931;SDS011;32670;51.464;11.964;2023-07-16T07:53:32;3.67;;;2.13;;
46931;SDS011;32670;51.464;11.964;2023-07-16T07:55:57;3.00;;;2.10;;
46931;SDS011;32670;51.464;11.964;2023-07-16T07:58:23;5.97;;;2.40;;
46931;SDS011;32670;51.464;11.964;2023-07-16T08:00:48;3.30;;;2.00;;
46931;SDS011;32670;51.464;11.964;2023-07-16T08:03:13;5.97;;;2.10;;
46931;SDS011;32670;51.464;11.964;2023-07-16T08:05:39;4.03;;;2.30;;
46931;SDS011;32670;51.464;11.964;2023-07-16T08:08:04;3.90;;;2.43;;
46931;SDS011;32670;51.464;11.964;2023-07-16T08:10:30;3.20;;;2.27;;
46931;SDS011;32670;51.464;11.964;2023-07-16T08:12:55;4.27;;;2.10;;
46931;SDS011;32670;51.464;11.964;2023-07-16T08:15:21;4.23;;;2.37;;
46931;SDS011;32670;51.464;11.964;2023-07-16T08:17:46;2.80;;;2.00;;
46931;SDS011;32670;51.464;11.964;2023-07-16T08:20:13;2.00;;;1.73;;
46931;SDS011;32670;51.464;11.964;2023-07-16T08:22:38;3.30;;;2.00;;
46931;SDS011;32670;51.464;11.964;2023-07-16T08:25:04;5.33;;;2.47;;
46931;SDS011;32670;51.464;11.964;2023-07-16T08:27:31;3.07;;;2.37;;
46931;SDS011;32670;51.464;11.964;2023-07-16T08:29:56;2.30;;;2.10;;
46931;SDS011;32670;51.464;11.964;2023-07-16T08:32:22;3.43;;;2.50;;
46931;SDS011;32670;51.464;11.964;2023-07-16T08:34:48;2.30;;;2.10;;
46931;SDS011;32670;51.464;11.964;2023-07-16T08:37:14;3.03;;;2.30;;
46931;SDS011;32670;51.464;11.964;2023-07-16T08:39:39;3.30;;;2.17;;
46931;SDS011;32670;51.464;11.964;2023-07-16T08:42:05;4.00;;;2.37;;
46931;SDS011;32670;51.464;11.964;2023-07-16T08:44:33;4.33;;;2.53;;
46931;SDS011;32670;51.464;11.964;2023-07-16T08:46:59;2.20;;;2.00;;
46931;SDS011;32670;51.464;11.964;2023-07-16T08:49:25;4.33;;;2.30;;
46931;SDS011;32670;51.464;11.964;2023-07-16T08:51:55;3.30;;;2.13;;
46931;SDS011;32670;51.464;11.964;2023-07-16T08:54:21;3.90;;;2.17;;
46931;SDS011;32670;51.464;11.964;2023-07-16T08:56:47;3.07;;;2.40;;
46931;SDS011;32670;51.464;11.964;2023-07-16T08:59:14;4.20;;;2.40;;
46931;SDS011;32670;51.464;11.964;2023-07-16T09:01:40;2.87;;;2.37;;
46931;SDS011;32670;51.464;11.964;2023-07-16T09:04:05;4.23;;;2.20;;
46931;SDS011;32670;51.464;11.964;2023-07-16T09:06:31;3.40;;;2.37;;
46931;SDS011;32670;51.464;11.964;2023-07-16T09:08:57;3.50;;;2.40;;
46931;SDS011;32670;51.464;11.964;2023-07-16T09:11:23;2.40;;;2.20;;
46931;SDS011;32670;51.464;11.964;2023-07-16T09:13:48;2.80;;;2.50;;
46931;SDS011;32670;51.464;11.964;2023-07-16T09:16:17;3.57;;;2.60;;
46931;SDS011;32670;51.464;11.964;2023-07-16T09:18:43;3.67;;;2.43;;
46931;SDS011;32670;51.464;11.964;2023-07-16T09:21:10;2.60;;;2.40;;
46931;SDS011;32670;51.464;11.964;2023-07-16T09:23:35;4.03;;;2.80;;
46931;SDS011;32670;51.464;11.964;2023-07-16T09:26:01;4.67;;;2.23;;
46931;SDS011;32670;51.464;11.964;2023-07-16T09:28:29;4.43;;;2.70;;
46931;SDS011;32670;51.464;11.964;2023-07-16T09:30:55;2.40;;;2.20;;
46931;SDS011;32670;51.464;11.964;2023-07-16T09:33:27;2.43;;;2.23;;
46931;SDS011;32670;51.464;11.964;2023-07-16T09:35:53;3.67;;;2.43;;
46931;SDS011;32670;51.464;11.964;2023-07-16T09:38:18;3.67;;;2.30;;
46931;SDS011;32670;51.464;11.964;2023-07-16T09:40:44;3.27;;;2.23;;
46931;SDS011;32670;51.464;11.964;2023-07-16T09:43:10;3.23;;;2.43;;
46931;SDS011;32670;51.464;11.964;2023-07-16T09:45:37;3.53;;;2.20;;
46931;SDS011;32670;51.464;11.964;2023-07-16T09:48:03;3.27;;;2.03;;
46931;SDS011;32670;51.464;11.964;2023-07-16T09:50:29;4.10;;;2.50;;
46931;SDS011;32670;51.464;11.964;2023-07-16T09:52:58;4.00;;;2.70;;
46931;SDS011;32670;51.464;11.964;2023-07-16T09:55:24;2.80;;;2.57;;
46931;SDS011;32670;51.464;11.964;2023-07-16T09:57:53;2.53;;;2.30;;
46931;SDS011;32670;51.464;11.964;2023-07-16T10:00:21;2.57;;;2.30;;
46931;SDS011;32670;51.464;11.964;2023-07-16T10:02:49;2.80;;;2.50;;
46931;SDS011;32670;51.464;11.964;2023-07-16T10:05:16;2.87;;;2.50;;
46931;SDS011;32670;51.464;11.964;2023-07-16T10:07:48;2.53;;;2.33;;
46931;SDS011;32670;51.464;11.964;2023-07-16T10:10:16;4.00;;;2.43;;
46931;SDS011;32670;51.464;11.964;2023-07-16T10:12:42;2.87;;;2.60;;
46931;SDS011;32670;51.464;11.964;2023-07-16T10:15:24;3.03;;;2.40;;
46931;SDS011;32670;51.464;11.964;2023-07-16T10:17:51;2.60;;;2.40;;
46931;SDS011;32670;51.464;11.964;2023-07-16T10:20:16;5.23;;;2.33;;
46931;SDS011;32670;51.464;11.964;2023-07-16T10:22:52;3.60;;;2.30;;
46931;SDS011;32670;51.464;11.964;2023-07-16T10:27:44;2.87;;;1.93;;
46931;SDS011;32670;51.464;11.964;2023-07-16T10:30:14;2.00;;;1.77;;
46931;SDS011;32670;51.464;11.964;2023-07-16T10:32:40;2.53;;;2.10;;
46931;SDS011;32670;51.464;11.964;2023-07-16T10:35:07;3.60;;;1.90;;
46931;SDS011;32670;51.464;11.964;2023-07-16T10:37:33;1.97;;;1.77;;
46931;SDS011;32670;51.464;11.964;2023-07-16T10:40:00;4.77;;;2.33;;
46931;SDS011;32670;51.464;11.964;2023-07-16T10:42:28;4.70;;;2.10;;
46931;SDS011;32670;51.464;11.964;2023-07-16T10:44:56;2.43;;;1.97;;
46931;SDS011;32670;51.464;11.964;2023-07-16T10:47:24;2.00;;;1.80;;
46931;SDS011;32670;51.464;11.964;2023-07-16T10:49:55;2.83;;;2.00;;
46931;SDS011;32670;51.464;11.964;2023-07-16T10:52:21;4.00;;;2.97;;
46931;SDS011;32670;51.464;11.964;2023-07-16T10:54:51;3.27;;;2.90;;
46931;SDS011;32670;51.464;11.964;2023-07-16T10:57:22;4.93;;;2.73;;
46931;SDS011;32670;51.464;11.964;2023-07-16T10:59:50;3.77;;;2.67;;
46931;SDS011;32670;51.464;11.964;2023-07-16T11:02:17;3.63;;;2.00;;
46931;SDS011;32670;51.464;11.964;2023-07-16T11:04:43;5.07;;;2.97;;
46931;SDS011;32670;51.464;11.964;2023-07-16T11:07:11;5.43;;;2.97;;
46931;SDS011;32670;51.464;11.964;2023-07-16T11:09:40;3.90;;;2.90;;
46931;SDS011;32670;51.464;11.964;2023-07-16T11:12:08;2.97;;;2.63;;
46931;SDS011;32670;51.464;11.964;2023-07-16T11:14:38;3.27;;;2.80;;
46931;SDS011;32670;51.464;11.964;2023-07-16T11:17:07;5.47;;;2.67;;
46931;SDS011;32670;51.464;11.964;2023-07-16T11:19:33;2.97;;;2.70;;
46931;SDS011;32670;51.464;11.964;2023-07-16T11:22:00;3.10;;;2.80;;
46931;SDS011;32670;51.464;11.964;2023-07-16T11:24:26;4.93;;;2.67;;
46931;SDS011;32670;51.464;11.964;2023-07-16T11:26:52;5.17;;;2.90;;
46931;SDS011;32670;51.464;11.964;2023-07-16T11:29:23;3.63;;;2.67;;
46931;SDS011;32670;51.464;11.964;2023-07-16T11:31:52;3.83;;;3.07;;
46931;SDS011;32670;51.464;11.964;2023-07-16T11:34:21;3.93;;;2.70;;
46931;SDS011;32670;51.464;11.964;2023-07-16T11:36:48;4.60;;;3.03;;
46931;SDS011;32670;51.464;11.964;2023-07-16T11:39:14;3.50;;;3.20;;
46931;SDS011;32670;51.464;11.964;2023-07-16T11:41:39;3.10;;;2.77;;
46931;SDS011;32670;51.464;11.964;2023-07-16T11:44:06;3.33;;;3.07;;
46931;SDS011;32670;51.464;11.964;2023-07-16T11:46:33;3.77;;;3.23;;
46931;SDS011;32670;51.464;11.964;2023-07-16T11:48:59;3.37;;;2.90;;
46931;SDS011;32670;51.464;11.964;2023-07-16T11:51:25;3.83;;;3.20;;
46931;SDS011;32670;51.464;11.964;2023-07-16T11:53:51;3.37;;;3.07;;
46931;SDS011;32670;51.464;11.964;2023-07-16T11:56:17;3.90;;;3.20;;
46931;SDS011;32670;51.464;11.964;2023-07-16T11:58:42;4.07;;;3.40;;
46931;SDS011;32670;51.464;11.964;2023-07-16T12:01:08;3.47;;;3.17;;
46931;SDS011;32670;51.464;11.964;2023-07-16T12:03:34;3.67;;;3.10;;
46931;SDS011;32670;51.464;11.964;2023-07-16T12:06:00;3.77;;;3.40;;
46931;SDS011;32670;51.464;11.964;2023-07-16T12:08:25;4.17;;;3.13;;
46931;SDS011;32670;51.464;11.964;2023-07-16T12:10:51;4.83;;;3.23;;
46931;SDS011;32670;51.464;11.964;2023-07-16T12:13:16;3.37;;;3.03;;
46931;SDS011;32670;51.464;11.964;2023-07-16T12:15:42;4.00;;;3.40;;
46931;SDS011;32670;51.464;11.964;2023-07-16T12:18:07;3.60;;;3.30;;
46931;SDS011;32670;51.464;11.964;2023-07-16T12:20:36;4.60;;;3.97;;
46931;SDS011;32670;51.464;11.964;2023-07-16T12:23:01;4.43;;;3.70;;
46931;SDS011;32670;51.464;11.964;2023-07-16T12:25:28;4.33;;;3.90;;
46931;SDS011;32670;51.464;11.964;2023-07-16T12:27:53;4.77;;;4.20;;
46931;SDS011;32670;51.464;11.964;2023-07-16T12:30:19;4.37;;;3.77;;
46931;SDS011;32670;51.464;11.964;2023-07-16T12:32:45;4.20;;;3.73;;
46931;SDS011;32670;51.464;11.964;2023-07-16T12:35:10;4.23;;;3.83;;
46931;SDS011;32670;51.464;11.964;2023-07-16T12:37:36;4.43;;;4.03;;
46931;SDS011;32670;51.464;11.964;2023-07-16T12:40:02;4.50;;;4.07;;
46931;SDS011;32670;51.464;11.964;2023-07-16T12:42:28;5.53;;;4.03;;
46931;SDS011;32670;51.464;11.964;2023-07-16T12:44:53;4.53;;;4.13;;
46931;SDS011;32670;51.464;11.964;2023-07-16T12:47:19;4.47;;;3.73;;
46931;SDS011;32670;51.464;11.964;2023-07-16T12:49:44;4.30;;;3.87;;
46931;SDS011;32670;51.464;11.964;2023-07-16T12:52:10;4.60;;;4.00;;
46931;SDS011;32670;51.464;11.964;2023-07-16T12:54:35;4.53;;;4.13;;
46931;SDS011;32670;51.464;11.964;2023-07-16T12:57:01;4.70;;;4.27;;
46931;SDS011;32670;51.464;11.964;2023-07-16T12:59:27;5.87;;;4.70;;
46931;SDS011;32670;51.464;11.964;2023-07-16T13:01:53;5.03;;;4.57;;
46931;SDS011;32670;51.464;11.964;2023-07-16T13:04:18;5.53;;;5.03;;
46931;SDS011;32670;51.464;11.964;2023-07-16T13:06:44;5.20;;;4.80;;
46931;SDS011;32670;51.464;11.964;2023-07-16T13:09:12;4.90;;;4.43;;
46931;SDS011;32670;51.464;11.964;2023-07-16T13:11:42;5.47;;;4.40;;
46931;SDS011;32670;51.464;11.964;2023-07-16T13:14:07;4.83;;;4.43;;
46931;SDS011;32670;51.464;11.964;2023-07-16T13:16:33;5.50;;;4.60;;
46931;SDS011;32670;51.464;11.964;2023-07-16T13:18:58;5.50;;;5.00;;
46931;SDS011;32670;51.464;11.964;2023-07-16T13:21:24;5.23;;;4.80;;
46931;SDS011;32670;51.464;11.964;2023-07-16T13:23:49;5.23;;;4.73;;
46931;SDS011;32670;51.464;11.964;2023-07-16T13:26:15;5.27;;;4.87;;
46931;SDS011;32670;51.464;11.964;2023-07-16T13:28:40;5.30;;;4.80;;
46931;SDS011;32670;51.464;11.964;2023-07-16T13:31:06;4.93;;;4.53;;
46931;SDS011;32670;51.464;11.964;2023-07-16T13:33:31;5.77;;;5.27;;
46931;SDS011;32670;51.464;11.964;2023-07-16T13:35:57;5.37;;;4.90;;
46931;SDS011;32670;51.464;11.964;2023-07-16T13:38:26;5.50;;;5.00;;
46931;SDS011;32670;51.464;11.964;2023-07-16T13:40:51;5.50;;;5.07;;
46931;SDS011;32670;51.464;11.964;2023-07-16T13:43:17;5.77;;;5.27;;
46931;SDS011;32670;51.464;11.964;2023-07-16T13:45:42;7.77;;;5.80;;
46931;SDS011;32670;51.464;11.964;2023-07-16T13:48:08;5.73;;;5.23;;
46931;SDS011;32670;51.464;11.964;2023-07-16T13:50:33;6.33;;;5.80;;
46931;SDS011;32670;51.464;11.964;2023-07-16T13:52:59;7.23;;;6.53;;
46931;SDS011;32670;51.464;11.964;2023-07-16T13:55:26;6.73;;;6.00;;
46931;SDS011;32670;51.464;11.964;2023-07-16T13:57:53;6.63;;;6.03;;
46931;SDS011;32670;51.464;11.964;2023-07-16T14:00:20;6.07;;;5.57;;
46931;SDS011;32670;51.464;11.964;2023-07-16T14:02:46;6.30;;;5.67;;
46931;SDS011;32670;51.464;11.964;2023-07-16T14:05:12;6.57;;;5.97;;
46931;SDS011;32670;51.464;11.964;2023-07-16T14:07:37;6.73;;;6.13;;
46931;SDS011;32670;51.464;11.964;2023-07-16T14:10:03;6.03;;;5.53;;
46931;SDS011;32670;51.464;11.964;2023-07-16T14:12:29;6.60;;;6.00;;
46931;SDS011;32670;51.464;11.964;2023-07-16T14:14:54;7.23;;;6.33;;
46931;SDS011;32670;51.464;11.964;2023-07-16T14:17:20;6.97;;;6.30;;
46931;SDS011;32670;51.464;11.964;2023-07-16T14:19:45;6.53;;;5.93;;
46931;SDS011;32670;51.464;11.964;2023-07-16T14:22:11;6.53;;;5.93;;
46931;SDS011;32670;51.464;11.964;2023-07-16T14:24:38;7.53;;;6.80;;
46931;SDS011;32670;51.464;11.964;2023-07-16T14:27:05;7.40;;;6.80;;
46931;SDS011;32670;51.464;11.964;2023-07-16T14:29:31;7.80;;;7.00;;
46931;SDS011;32670;51.464;11.964;2023-07-16T14:31:57;8.20;;;7.40;;
46931;SDS011;32670;51.464;11.964;2023-07-16T14:34:23;7.90;;;7.20;;
46931;SDS011;32670;51.464;11.964;2023-07-16T14:36:50;7.63;;;6.93;;
46931;SDS011;32670;51.464;11.964;2023-07-16T14:39:15;7.73;;;7.03;;